1967 Severe Tropical Cyclone EDITH (1967006S15114)


IBTrACS version v04r00. Visit IBTrACS website for data access.
Please direct all questions to the IBTrACS Q and A forum

Storm track - Intensity - Wind Radii - Intensity Data - Source Data - All data

Summary Information

Storm ID 1967006S15114
Start Jan 5 23Z
Max Intensity 80 kt (Jan 8 00Z), 965 mb (Jan 8 01Z)
End Jan 9 23Z
ATCF IDs ,SH131967
Track status Best track data.

Storm track plot

Map of storm track

Intensity plots

Map of storm track

Radial wind information

No radial wind information for this storm


Position and Intensity Table

BASIN ISO_TIME_________ NATURE LAT LON WMO PRES BOM PRES NEUMANN WIND NEUMANN PRES
degrees north degrees east mb mb kts mb
SI 1967-01-05 23:00:00 NR -14.90 114.20
SI 1967-01-06 00:00:00 TS -14.98 114.11
SI 01:00:00 TS -15.03 114.02 1003 1003
SI 03:00:00 TS -15.24 113.77
SI 04:00:00 TS -15.36 113.62
SI 06:00:00 TS -15.55 113.21 30 1000
SI 07:00:00 TS -15.56 112.93 30 999
SI 09:00:00 TS -15.46 112.39 32 999
SI 10:00:00 TS -15.38 112.11 33 998
SI 11:00:00 TS -15.31 112.00 34 998
SI 12:00:00 TS -15.24 111.97 35 998
SI 15:00:00 TS -15.08 112.21 35 997
SI 15:30:00 TS -15.08 112.28 35 996
SI 18:00:00 TS -15.18 112.60 35 996
SI 20:00:00 TS -15.46 112.53 36 994
SI 21:00:00 TS -15.61 112.44 37 994
SI 23:00:00 TS -15.90 112.22 39 993
SI 1967-01-07 00:00:00 TS -16.03 112.09 40 993
SI 01:00:00 TS -16.13 111.97 997 997 40 992
SI 03:00:00 TS -16.30 111.76 42 992
SI 06:00:00 TS -16.47 111.44 45 991
SI 09:00:00 TS -16.57 111.15 50 987
SI 11:00:00 TS -16.61 110.94 53 984
SI 12:00:00 TS -16.63 110.84 55 983
SI 15:00:00 TS -16.70 110.50 62 979
SI 18:00:00 TS -16.77 110.11 70 975
SI 21:00:00 TS -16.84 109.68 75 971
SI 23:00:00 TS -16.92 109.35 78 968
SI 1967-01-08 00:00:00 TS -16.97 109.17 80 967
SI 01:00:00 TS -17.06 108.98 965 965 79 967
SI 03:00:00 TS -17.24 108.53 77 968
SI 05:50:00 TS -17.57 107.93 75 969
SI 06:00:00 TS -17.59 107.90 75 970
SI 09:00:00 TS -18.04 107.41 72 971
SI 11:00:00 TS -18.30 107.24 70 972
SI 12:00:00 TS -18.37 107.21 70 973
SI 13:00:00 TS -18.37 107.21 69 973
SI 15:00:00 TS -18.25 107.15 67 974
SI 16:00:00 TS -18.15 107.07 66 974
SI 17:20:00 TS -18.03 106.92 65 975
SI 18:00:00 TS -17.99 106.82 65 976
SI 21:00:00 TS -17.98 106.08 62 978
SI 23:00:00 TS -18.06 105.50 60 979
SI 1967-01-09 00:00:00 TS -18.12 105.17 60 980
SI 01:00:00 TS -18.21 104.87 985 985
SI 03:00:00 TS -18.33 104.51
SI 06:00:00 TS -18.48 103.99
SI 09:00:00 TS -18.66 103.41
SI 11:00:00 TS -18.81 103.01
SI 12:00:00 TS -18.90 102.80
SI 15:00:00 TS -19.19 102.15
SI 18:00:00 TS -19.53 101.48
SI 21:00:00 NR -19.94 100.77
SI 23:00:00 NR -20.20 100.30

Source Information

Agency Information
USA bsh131967.txt
TOKYO
CMA
HKO
NEWDELHI
REUNION
BOM IDCKMSTM0S.csv:Line=4657:EDITH
NADI
WELLINGTON
DS824 s_hem.dat:1021:13S
TD9636 cons_worldwide_trop_cyclone_18710101-19891231-006:Line=7604
TD9635
NEUMANN tracks.sh:Storm=183:EDITH:BSH1367:BM355
MLC

All available IBTrACS Data

SEASON BASIN SUBBASIN ISO_TIME_________ NATURE LAT LON WMO PRES WMO AGENCY DIST2LAND LANDFALL IFLAG USA AGENCY USA ATCF_ID USA LAT USA LON USA SSHS BOM LAT BOM LON BOM PRES BOM PRES_METHOD DS824 LAT DS824 LON DS824 STAGE TD9636 LAT TD9636 LON TD9636 STAGE NEUMANN LAT NEUMANN LON NEUMANN CLASS NEUMANN WIND NEUMANN PRES STORM SPEED STORM DIR
Year degrees north degrees east mb km km degrees north degrees east 1 degrees north degrees east mb degrees north degrees east degrees north degrees east degrees north degrees east kts mb kts degrees
1967 SI WA 1967-01-05 23:00:00 NR -14.90 114.20 684 684 __________O___ -1 -14.90 114.20 7 7 230
1967 SI WA 1967-01-06 00:00:00 TS -14.98 114.11 684 684 O________OP___ jtwc_sh SH131967 -15.00 114.10 -1 -15.00 114.10 TC -14.95 114.12 7 6 233
1967 SI WA 01:00:00 TS -15.03 114.02 1003 bom 688 672 P_____O__PP___ SH131967 -15.06 114.02 -1 -15.00 114.00 1003 -15.06 114.02 TC -15.00 114.04 7 8 231
1967 SI WA 03:00:00 TS -15.24 113.77 677 672 P_____P__PP___ SH131967 -15.16 113.85 -1 -15.75 113.33 -15.16 113.85 TC -15.11 113.87 7 10 230
1967 SI WA 04:00:00 TS -15.36 113.62 bom 667 663 P_____O__PP___ SH131967 -15.21 113.77 -1 -16.00 113.00 -15.21 113.77 TC -15.16 113.79 7 12 240
1967 SI WA 06:00:00 TS -15.55 113.21 680 670 O_____P__OP_O_ jtwc_sh SH131967 -15.30 113.60 -1 -16.11 112.35 -15.30 113.60 TC -15.26 113.62 7 -16.00 112.80 TC 30 1000 14 253
1967 SI WA 07:00:00 TS -15.56 112.93 bom 687 687 P_____O__PP_P_ SH131967 -15.34 113.52 -1 -16.00 112.00 -15.34 113.52 TC -15.31 113.54 7 -15.86 112.32 TC 30 999 16 277
1967 SI WA 09:00:00 TS -15.46 112.39 725 725 P_____P__PP_P_ SH131967 -15.40 113.35 -1 -15.56 111.09 -15.40 113.35 TC -15.41 113.37 7 -15.57 111.47 TC 32 999 16 283
1967 SI WA 10:00:00 TS -15.38 112.11 bom 752 752 P_____O__PP_P_ SH131967 -15.43 113.27 -1 -15.30 110.80 -15.43 113.27 TC -15.45 113.29 7 -15.42 111.16 TC 33 998 12 292
1967 SI WA 11:00:00 TS -15.31 112.00 767 767 P_____P__PO_P_ SH131967 -15.46 113.18 -1 -15.09 110.72 -15.46 113.18 TC -15.50 113.20 7 -15.26 110.96 TC 34 998 6 315
1967 SI WA 12:00:00 TS -15.24 111.97 bom 762 748 O_____O__OP_O_ jtwc_sh SH131967 -15.50 113.10 -1 -14.90 110.80 -15.50 113.10 TC -15.54 113.11 7 -15.10 110.90 TC 35 998 5 42
1967 SI WA 15:00:00 TS -15.08 112.21 748 745 P_____P__PP_P_ SH131967 -15.65 112.86 -1 -14.32 111.52 -15.65 112.86 TC -15.67 112.85 7 -14.63 111.52 TC 35 997 6 61
1967 SI WA 15:30:00 TS -15.08 112.28 bom 745 738 P_____O__PP_P_ SH131967 -15.68 112.82 -1 -14.30 111.70 -15.68 112.82 TC -15.70 112.80 7 -14.57 111.68 TC 35 996 8 105
1967 SI WA 18:00:00 TS -15.18 112.60 bom 742 723 O_____O__OP_O_ jtwc_sh SH131967 -15.80 112.60 -1 -14.60 112.70 -15.80 112.60 TC -15.80 112.57 7 -14.50 112.40 TC 35 996 6 149
1967 SI WA 20:00:00 TS -15.46 112.53 bom 719 710 P_____O__PP_P_ SH131967 -15.87 112.41 -1 -15.30 112.70 -15.87 112.41 TC -15.88 112.39 7 -14.86 112.53 TC 36 994 9 198
1967 SI WA 21:00:00 TS -15.61 112.44 715 694 P_____P__PP_P_ SH131967 -15.90 112.31 -1 -15.58 112.62 -15.90 112.31 TC -15.92 112.29 7 -15.12 112.52 TC 37 994 11 214
1967 SI WA 23:00:00 TS -15.90 112.22 697 686 P_____P__PO_P_ SH131967 -15.96 112.10 -1 -16.00 112.30 -15.96 112.10 TC -16.00 112.10 7 -15.67 112.40 TC 39 993 11 219
1967 SI WA 1967-01-07 00:00:00 TS -16.03 112.09 689 678 O_____P__OP_O_ jtwc_sh SH131967 -16.00 112.00 -1 -16.16 112.11 -16.00 112.00 TC -16.04 112.01 7 -15.90 112.30 TC 40 993 10 226
1967 SI WA 01:00:00 TS -16.13 111.97 997 bom 682 667 P_____O__PP_P_ SH131967 -16.05 111.90 -1 -16.30 111.90 997 -16.05 111.90 TC -16.08 111.92 7 -16.04 112.20 TC 40 992 8 230
1967 SI WA 03:00:00 TS -16.30 111.76 667 658 P_____P__PP_P_ SH131967 -16.15 111.70 -1 -16.56 111.67 -16.15 111.70 TC -16.17 111.73 7 -16.24 111.95 TC 42 992 7 236
1967 SI WA 06:00:00 TS -16.47 111.44 662 661 O_____P__OP_O_ jtwc_sh SH131967 -16.30 111.40 -1 -16.77 111.44 -16.30 111.40 TC -16.29 111.45 7 -16.40 111.50 TC 45 991 6 245
1967 SI WA 09:00:00 TS -16.57 111.15 666 666 P_____P__PP_P_ SH131967 -16.40 111.11 -1 -16.83 111.27 -16.40 111.11 TC -16.42 111.13 7 -16.52 111.14 TC 50 987 6 254
1967 SI WA 11:00:00 TS -16.61 110.94 676 676 P_____P__PO_P_ SH131967 -16.46 110.91 -1 -16.82 111.17 -16.46 110.91 TC -16.50 110.90 1 -16.57 110.91 TC 53 984 6 259
1967 SI WA 12:00:00 TS -16.63 110.84 681 676 O_____P__OP_O_ jtwc_sh SH131967 -16.50 110.80 -1 -16.80 111.11 -16.50 110.80 TC -16.54 110.78 1 -16.60 110.80 TC 55 983 7 258
1967 SI WA 15:00:00 TS -16.70 110.50 687 687 P_____P__PP_P_ SH131967 -16.65 110.43 -1 -16.74 110.91 -16.65 110.43 TC -16.67 110.39 1 -16.71 110.45 TC 62 979 7 258
1967 SI WA 18:00:00 TS -16.77 110.11 701 701 O_____P__OP_O_ jtwc_sh SH131967 -16.80 110.00 -1 -16.69 110.59 -16.80 110.00 TC -16.79 109.97 1 -16.80 110.10 TC 70 975 8 259
1967 SI WA 21:00:00 TS -16.84 109.68 727 724 P_____P__PP_P_ SH131967 -16.90 109.51 -1 -16.73 110.11 -16.90 109.51 TC -16.92 109.51 1 -16.81 109.82 TC 75 971 9 258
1967 SI WA 23:00:00 TS -16.92 109.35 738 738 P_____P__PO_P_ SH131967 -16.96 109.17 -1 -16.83 109.66 -16.96 109.17 TC -17.00 109.20 1 -16.85 109.57 TC 78 968 10 255
1967 SI WA 1967-01-08 00:00:00 TS -16.97 109.17 743 743 O_____P__OP_O_ jtwc_sh SH131967 -17.00 109.00 -1 -16.90 109.40 -17.00 109.00 TC -17.04 109.04 1 -16.90 109.40 TC 80 967 12 249
1967 SI WA 01:00:00 TS -17.06 108.98 965 bom 750 750 P_____O__PP_P_ SH131967 -17.05 108.83 -1 -17.00 109.10 965 4 -17.05 108.83 TC -17.08 108.88 1 -16.96 109.14 TC 79 967 13 246
1967 SI WA 03:00:00 TS -17.24 108.53 779 772 P_____P__PP_P_ SH131967 -17.15 108.50 -1 -17.21 108.30 -17.15 108.50 TC -17.16 108.56 1 -17.14 108.54 TC 77 968 14 243
1967 SI WA 05:50:00 TS -17.57 107.93 bom 799 799 P_____O__PP_P_ SH131967 -17.29 108.03 -1 -17.70 107.30 -17.29 108.03 TC -17.28 108.08 1 -17.57 107.74 TC 75 969 14 240
1967 SI WA 06:00:00 TS -17.59 107.90 799 799 O_____P__OP_O_ jtwc_sh SH131967 -17.30 108.00 -1 -17.74 107.25 -17.30 108.00 TC -17.28 108.05 1 -17.60 107.70 TC 75 970 13 227
1967 SI WA 09:00:00 TS -18.04 107.41 bom 815 806 P_____O__PP_P_ SH131967 -17.40 107.50 -1 -18.60 106.70 -17.40 107.50 TC -17.41 107.54 1 -18.55 107.24 TC 72 971 11 221
1967 SI WA 11:00:00 TS -18.30 107.24 bom 816 810 P_____O__PO_P_ SH131967 -17.46 107.17 -1 -19.20 107.10 -17.46 107.17 TC -17.50 107.20 2 -19.07 107.16 TC 70 972 8 208
1967 SI WA 12:00:00 TS -18.37 107.21 810 810 O_____P__OP_O_ jtwc_sh SH131967 -17.50 107.00 -1 -19.28 107.55 -17.50 107.00 TC -17.55 107.04 2 -19.20 107.20 TC 70 973 2 212
1967 SI WA 13:00:00 TS -18.37 107.21 bom 810 810 P_____O__PP_P_ SH131967 -17.54 106.83 -1 -19.20 108.00 -17.54 106.83 TC -17.59 106.87 2 -19.12 107.38 TC 69 973 3 332
1967 SI WA 15:00:00 TS -18.25 107.15 825 825 P_____P__PP_P_ SH131967 -17.63 106.50 -1 -18.67 108.41 -17.63 106.50 TC -17.69 106.54 2 -18.67 107.89 TC 67 974 5 329
1967 SI WA 16:00:00 TS -18.15 107.07 bom 830 830 P_____O__PP_P_ SH131967 -17.69 106.33 -1 -18.30 108.40 -17.69 106.33 TC -17.73 106.38 2 -18.39 108.12 TC 66 974 8 316
1967 SI WA 17:20:00 TS -18.03 106.92 bom 860 860 P_____O__PP_P_ SH131967 -17.76 106.11 -1 -17.80 108.20 -17.76 106.11 TC -17.80 106.16 2 -18.04 108.30 TC 65 975 9 305
1967 SI WA 18:00:00 TS -17.99 106.82 869 869 O_____P__OP_O_ jtwc_sh SH131967 -17.80 106.00 -1 -17.67 108.01 -17.80 106.00 TC -17.83 106.05 2 -17.90 108.30 TC 65 976 13 273
1967 SI WA 21:00:00 TS -17.98 106.08 bom 933 933 P_____O__PP_P_ SH131967 -18.00 105.50 -1 -17.80 106.70 -18.00 105.50 TC -17.99 105.54 2 -17.70 107.53 TC 62 978 15 267
1967 SI WA 23:00:00 TS -18.06 105.50 982 982 P_____P__PO_P_ SH131967 -18.14 105.17 -1 -17.94 105.89 -18.14 105.17 TC -18.10 105.20 7 -17.82 106.55 TC 60 979 17 261
1967 SI WA 1967-01-09 00:00:00 TS -18.12 105.17 1009 1009 O_____P__OP_O_ jtwc_sh SH131967 -18.20 105.00 -1 -17.97 105.54 -18.20 105.00 TC -18.15 105.03 7 -17.90 106.00 TC 60 980 18 255
1967 SI WA 01:00:00 TS -18.21 104.87 985 bom 1031 1031 P_____O__PP___ SH131967 -18.25 104.84 -1 -18.00 105.20 985 -18.25 104.84 TC -18.19 104.86 7 TC 13 252
1967 SI WA 03:00:00 TS -18.33 104.51 1062 1062 P________PP___ SH131967 -18.35 104.51 -1 -18.35 104.51 TC -18.29 104.51 7 TC 11 252
1967 SI WA 06:00:00 TS -18.48 103.99 1099 1099 O________OP___ jtwc_sh SH131967 -18.50 104.00 -1 -18.50 104.00 TC -18.44 103.97 7 11 252
1967 SI WA 09:00:00 TS -18.66 103.41 1146 1146 P________PP___ SH131967 -18.68 103.42 -1 -18.68 103.42 TC -18.64 103.40 7 12 250
1967 SI WA 11:00:00 TS -18.81 103.01 1181 1181 P________PO___ SH131967 -18.82 103.01 -1 -18.82 103.01 TC -18.80 103.00 2 13 248
1967 SI WA 12:00:00 TS -18.90 102.80 1196 1196 O________OP___ jtwc_sh SH131967 -18.90 102.80 -1 -18.90 102.80 TC -18.89 102.79 2 13 245
1967 SI WA 15:00:00 TS -19.19 102.15 1243 1243 P________PP___ SH131967 -19.18 102.16 -1 -19.18 102.16 TC -19.20 102.15 2 14 243
1967 SI WA 18:00:00 TS -19.53 101.48 1301 1301 O________OP___ jtwc_sh SH131967 -19.50 101.50 -1 -19.50 101.50 TC -19.56 101.47 2 15 240
1967 SI WA 21:00:00 NR -19.94 100.77 1359 1359 __________P___ SH131967 -1 TC -19.94 100.77 2 16 239
1967 SI WA 23:00:00 NR -20.20 100.30 1401 __________O___ SH131967 -1 TC -20.20 100.30 2 15 239